sensor_id;sensor_type;location;lat;lon;timestamp;pressure;altitude;pressure_sealevel;temperature;humidity
45541;BME280;31265;49.680;8.608;2023-04-07T00:01:09;100573.06;;;6.35;100.00
45541;BME280;31265;49.680;8.608;2023-04-07T00:03:39;100568.09;;;6.34;100.00
45541;BME280;31265;49.680;8.608;2023-04-07T00:06:10;100565.13;;;6.32;100.00
45541;BME280;31265;49.680;8.608;2023-04-07T00:08:38;100563.09;;;6.32;100.00
45541;BME280;31265;49.680;8.608;2023-04-07T00:11:07;100562.13;;;6.30;100.00
45541;BME280;31265;49.680;8.608;2023-04-07T00:13:35;100563.44;;;6.29;100.00
45541;BME280;31265;49.680;8.608;2023-04-07T00:16:04;100554.59;;;6.30;100.00
45541;BME280;31265;49.680;8.608;2023-04-07T00:18:33;100556.34;;;6.33;100.00
45541;BME280;31265;49.680;8.608;2023-04-07T00:21:02;100546.56;;;6.32;100.00
45541;BME280;31265;49.680;8.608;2023-04-07T00:23:34;100557.06;;;6.34;100.00
45541;BME280;31265;49.680;8.608;2023-04-07T00:26:03;100553.78;;;6.35;100.00
45541;BME280;31265;49.680;8.608;2023-04-07T00:28:31;100554.22;;;6.39;100.00
45541;BME280;31265;49.680;8.608;2023-04-07T00:31:00;100548.69;;;6.39;100.00
45541;BME280;31265;49.680;8.608;2023-04-07T00:33:29;100544.47;;;6.38;100.00
45541;BME280;31265;49.680;8.608;2023-04-07T00:36:02;100538.75;;;6.36;100.00
45541;BME280;31265;49.680;8.608;2023-04-07T00:38:30;100532.16;;;6.39;100.00
45541;BME280;31265;49.680;8.608;2023-04-07T00:40:59;100523.69;;;6.37;100.00
45541;BME280;31265;49.680;8.608;2023-04-07T00:43:28;100520.50;;;6.33;100.00
45541;BME280;31265;49.680;8.608;2023-04-07T00:45:57;100515.19;;;6.35;100.00
45541;BME280;31265;49.680;8.608;2023-04-07T00:48:29;100513.72;;;6.34;100.00
45541;BME280;31265;49.680;8.608;2023-04-07T00:51:00;100509.91;;;6.37;100.00
45541;BME280;31265;49.680;8.608;2023-04-07T00:53:30;100507.13;;;6.37;100.00
45541;BME280;31265;49.680;8.608;2023-04-07T00:55:59;100502.38;;;6.38;100.00
45541;BME280;31265;49.680;8.608;2023-04-07T00:58:27;100501.41;;;6.35;100.00
45541;BME280;31265;49.680;8.608;2023-04-07T01:01:03;100501.94;;;6.34;100.00
45541;BME280;31265;49.680;8.608;2023-04-07T01:03:34;100502.69;;;6.34;100.00
45541;BME280;31265;49.680;8.608;2023-04-07T01:06:07;100502.16;;;6.36;100.00
45541;BME280;31265;49.680;8.608;2023-04-07T01:08:45;100490.59;;;6.37;100.00
45541;BME280;31265;49.680;8.608;2023-04-07T01:11:16;100484.03;;;6.40;100.00
45541;BME280;31265;49.680;8.608;2023-04-07T01:13:49;100480.75;;;6.42;100.00
45541;BME280;31265;49.680;8.608;2023-04-07T01:16:31;100486.78;;;6.40;100.00
45541;BME280;31265;49.680;8.608;2023-04-07T01:19:11;100486.78;;;6.40;100.00
45541;BME280;31265;49.680;8.608;2023-04-07T01:21:45;100480.75;;;6.42;100.00
45541;BME280;31265;49.680;8.608;2023-04-07T01:24:31;100475.97;;;6.42;100.00
45541;BME280;31265;49.680;8.608;2023-04-07T01:27:13;100478.50;;;6.40;100.00
45541;BME280;31265;49.680;8.608;2023-04-07T01:29:46;100473.97;;;6.43;100.00
45541;BME280;31265;49.680;8.608;2023-04-07T01:32:17;100474.94;;;6.45;100.00
45541;BME280;31265;49.680;8.608;2023-04-07T01:34:48;100471.22;;;6.43;100.00
45541;BME280;31265;49.680;8.608;2023-04-07T01:37:19;100473.44;;;6.44;100.00
45541;BME280;31265;49.680;8.608;2023-04-07T01:39:50;100467.81;;;6.50;100.00
45541;BME280;31265;49.680;8.608;2023-04-07T01:42:19;100464.88;;;6.48;100.00
45541;BME280;31265;49.680;8.608;2023-04-07T01:44:55;100474.38;;;6.47;100.00
45541;BME280;31265;49.680;8.608;2023-04-07T01:47:26;100463.47;;;6.55;100.00
45541;BME280;31265;49.680;8.608;2023-04-07T01:49:57;100457.00;;;6.52;100.00
45541;BME280;31265;49.680;8.608;2023-04-07T01:52:29;100463.06;;;6.51;100.00
45541;BME280;31265;49.680;8.608;2023-04-07T01:54:57;100456.03;;;6.50;100.00
45541;BME280;31265;49.680;8.608;2023-04-07T01:57:26;100454.56;;;6.49;100.00
45541;BME280;31265;49.680;8.608;2023-04-07T02:00:02;100447.56;;;6.47;100.00
45541;BME280;31265;49.680;8.608;2023-04-07T02:02:44;100448.84;;;6.46;100.00
45541;BME280;31265;49.680;8.608;2023-04-07T02:05:17;100441.00;;;6.51;100.00
45541;BME280;31265;49.680;8.608;2023-04-07T02:07:51;100450.31;;;6.47;100.00
45541;BME280;31265;49.680;8.608;2023-04-07T02:10:22;100442.25;;;6.50;100.00
45541;BME280;31265;49.680;8.608;2023-04-07T02:12:54;100447.78;;;6.50;100.00
45541;BME280;31265;49.680;8.608;2023-04-07T02:15:29;100441.75;;;6.51;100.00
45541;BME280;31265;49.680;8.608;2023-04-07T02:18:00;100441.19;;;6.53;100.00
45541;BME280;31265;49.680;8.608;2023-04-07T02:20:34;100444.16;;;6.55;100.00
45541;BME280;31265;49.680;8.608;2023-04-07T02:23:06;100440.88;;;6.56;100.00
45541;BME280;31265;49.680;8.608;2023-04-07T02:25:35;100438.88;;;6.57;100.00
45541;BME280;31265;49.680;8.608;2023-04-07T02:28:04;100438.75;;;6.62;100.00
45541;BME280;31265;49.680;8.608;2023-04-07T02:30:35;100434.19;;;6.65;100.00
45541;BME280;31265;49.680;8.608;2023-04-07T02:33:03;100425.72;;;6.63;100.00
45541;BME280;31265;49.680;8.608;2023-04-07T02:35:32;100425.72;;;6.63;100.00
45541;BME280;31265;49.680;8.608;2023-04-07T02:38:04;100433.25;;;6.62;100.00
45541;BME280;31265;49.680;8.608;2023-04-07T02:40:35;100433.06;;;6.60;100.00
45541;BME280;31265;49.680;8.608;2023-04-07T02:43:05;100426.38;;;6.56;100.00
45541;BME280;31265;49.680;8.608;2023-04-07T02:45:36;100421.38;;;6.54;100.00
45541;BME280;31265;49.680;8.608;2023-04-07T02:48:04;100426.16;;;6.54;100.00
45541;BME280;31265;49.680;8.608;2023-04-07T02:50:33;100425.72;;;6.50;100.00
45541;BME280;31265;49.680;8.608;2023-04-07T02:53:02;100425.63;;;6.55;100.00
45541;BME280;31265;49.680;8.608;2023-04-07T02:55:30;100419.91;;;6.53;100.00
45541;BME280;31265;49.680;8.608;2023-04-07T02:58:00;100409.72;;;6.61;100.00
45541;BME280;31265;49.680;8.608;2023-04-07T03:00:38;100418.09;;;6.56;100.00
45541;BME280;31265;49.680;8.608;2023-04-07T03:03:10;100419.13;;;6.53;100.00
45541;BME280;31265;49.680;8.608;2023-04-07T03:05:43;100417.16;;;6.53;100.00
45541;BME280;31265;49.680;8.608;2023-04-07T03:08:12;100413.63;;;6.53;100.00
45541;BME280;31265;49.680;8.608;2023-04-07T03:10:43;100415.13;;;6.54;100.00
45541;BME280;31265;49.680;8.608;2023-04-07T03:13:13;100414.38;;;6.53;100.00
45541;BME280;31265;49.680;8.608;2023-04-07T03:15:49;100414.59;;;6.55;100.00
45541;BME280;31265;49.680;8.608;2023-04-07T03:18:19;100417.38;;;6.55;100.00
45541;BME280;31265;49.680;8.608;2023-04-07T03:20:47;100414.78;;;6.57;100.00
45541;BME280;31265;49.680;8.608;2023-04-07T03:23:16;100412.81;;;6.58;100.00
45541;BME280;31265;49.680;8.608;2023-04-07T03:25:45;100406.44;;;6.63;100.00
45541;BME280;31265;49.680;8.608;2023-04-07T03:28:15;100406.63;;;6.65;100.00
45541;BME280;31265;49.680;8.608;2023-04-07T03:30:44;100408.31;;;6.68;100.00
45541;BME280;31265;49.680;8.608;2023-04-07T03:33:15;100410.13;;;6.65;100.00
45541;BME280;31265;49.680;8.608;2023-04-07T03:35:43;100406.81;;;6.67;100.00
45541;BME280;31265;49.680;8.608;2023-04-07T03:38:13;100400.28;;;6.70;100.00
45541;BME280;31265;49.680;8.608;2023-04-07T03:40:44;100412.78;;;6.71;100.00
45541;BME280;31265;49.680;8.608;2023-04-07T03:43:13;100406.81;;;6.67;100.00
45541;BME280;31265;49.680;8.608;2023-04-07T03:45:49;100402.59;;;6.66;100.00
45541;BME280;31265;49.680;8.608;2023-04-07T03:48:22;100406.09;;;6.66;100.00
45541;BME280;31265;49.680;8.608;2023-04-07T03:51:03;100391.34;;;6.64;100.00
45541;BME280;31265;49.680;8.608;2023-04-07T03:53:31;100399.41;;;6.62;100.00
45541;BME280;31265;49.680;8.608;2023-04-07T03:56:13;100402.38;;;6.64;100.00
45541;BME280;31265;49.680;8.608;2023-04-07T03:58:48;100392.66;;;6.63;100.00
45541;BME280;31265;49.680;8.608;2023-04-07T04:01:24;100386.19;;;6.60;100.00
45541;BME280;31265;49.680;8.608;2023-04-07T04:03:56;100383.22;;;6.58;100.00
45541;BME280;31265;49.680;8.608;2023-04-07T04:06:28;100382.47;;;6.58;100.00
45541;BME280;31265;49.680;8.608;2023-04-07T04:09:06;100391.06;;;6.54;100.00
45541;BME280;31265;49.680;8.608;2023-04-07T04:11:38;100393.06;;;6.54;100.00
45541;BME280;31265;49.680;8.608;2023-04-07T04:14:07;100397.09;;;6.53;100.00
45541;BME280;31265;49.680;8.608;2023-04-07T04:16:36;100396.34;;;6.52;100.00
45541;BME280;31265;49.680;8.608;2023-04-07T04:19:22;100401.13;;;6.52;100.00
45541;BME280;31265;49.680;8.608;2023-04-07T04:21:50;100404.41;;;6.50;100.00
45541;BME280;31265;49.680;8.608;2023-04-07T04:24:21;100401.97;;;6.46;100.00
45541;BME280;31265;49.680;8.608;2023-04-07T04:26:49;100404.53;;;6.44;100.00
45541;BME280;31265;49.680;8.608;2023-04-07T04:29:21;100398.78;;;6.42;100.00
45541;BME280;31265;49.680;8.608;2023-04-07T04:31:54;100405.38;;;6.39;100.00
45541;BME280;31265;49.680;8.608;2023-04-07T04:34:27;100403.47;;;6.34;100.00
45541;BME280;31265;49.680;8.608;2023-04-07T04:36:56;100402.00;;;6.33;100.00
45541;BME280;31265;49.680;8.608;2023-04-07T04:39:25;100401.78;;;6.31;100.00
45541;BME280;31265;49.680;8.608;2023-04-07T04:41:54;100401.06;;;6.31;100.00
45541;BME280;31265;49.680;8.608;2023-04-07T04:44:30;100401.25;;;6.33;100.00
45541;BME280;31265;49.680;8.608;2023-04-07T04:47:00;100400.28;;;6.30;100.00
45541;BME280;31265;49.680;8.608;2023-04-07T04:49:32;100402.31;;;6.30;100.00
45541;BME280;31265;49.680;8.608;2023-04-07T04:52:03;100399.03;;;6.31;100.00
45541;BME280;31265;49.680;8.608;2023-04-07T04:54:39;100400.28;;;6.30;100.00
45541;BME280;31265;49.680;8.608;2023-04-07T04:57:10;100407.09;;;6.29;100.00
45541;BME280;31265;49.680;8.608;2023-04-07T04:59:38;100402.63;;;6.26;100.00
45541;BME280;31265;49.680;8.608;2023-04-07T05:02:08;100405.19;;;6.24;100.00
45541;BME280;31265;49.680;8.608;2023-04-07T05:04:38;100411.94;;;6.23;100.00
45541;BME280;31265;49.680;8.608;2023-04-07T05:07:21;100403.28;;;6.19;100.00
45541;BME280;31265;49.680;8.608;2023-04-07T05:09:51;100405.59;;;6.15;100.00
45541;BME280;31265;49.680;8.608;2023-04-07T05:12:21;100414.91;;;6.12;100.00
45541;BME280;31265;49.680;8.608;2023-04-07T05:14:58;100409.63;;;6.14;100.00
45541;BME280;31265;49.680;8.608;2023-04-07T05:17:26;100412.59;;;6.16;100.00
45541;BME280;31265;49.680;8.608;2023-04-07T05:19:59;100405.47;;;6.20;100.00
45541;BME280;31265;49.680;8.608;2023-04-07T05:22:34;100407.50;;;6.20;100.00
45541;BME280;31265;49.680;8.608;2023-04-07T05:25:08;100409.50;;;6.19;100.00
45541;BME280;31265;49.680;8.608;2023-04-07T05:27:40;100404.22;;;6.21;100.00
45541;BME280;31265;49.680;8.608;2023-04-07T05:30:13;100405.91;;;6.24;100.00
45541;BME280;31265;49.680;8.608;2023-04-07T05:32:42;100415.13;;;6.27;100.00
45541;BME280;31265;49.680;8.608;2023-04-07T05:35:23;100421.28;;;6.33;100.00
45541;BME280;31265;49.680;8.608;2023-04-07T05:37:57;100419.69;;;6.38;100.00
45541;BME280;31265;49.680;8.608;2023-04-07T05:40:27;100422.88;;;6.42;100.00
45541;BME280;31265;49.680;8.608;2023-04-07T05:42:59;100412.50;;;6.48;100.00
45541;BME280;31265;49.680;8.608;2023-04-07T05:45:29;100413.31;;;6.56;100.00
45541;BME280;31265;49.680;8.608;2023-04-07T05:47:59;100415.56;;;6.58;100.00
45541;BME280;31265;49.680;8.608;2023-04-07T05:50:40;100419.44;;;6.62;100.00
45541;BME280;31265;49.680;8.608;2023-04-07T05:53:13;100419.16;;;6.66;100.00
45541;BME280;31265;49.680;8.608;2023-04-07T05:55:44;100414.56;;;6.68;100.00
45541;BME280;31265;49.680;8.608;2023-04-07T05:58:21;100413.72;;;6.74;100.00
45541;BME280;31265;49.680;8.608;2023-04-07T06:00:54;100409.88;;;6.77;100.00
45541;BME280;31265;49.680;8.608;2023-04-07T06:03:22;100413.81;;;6.81;100.00
45541;BME280;31265;49.680;8.608;2023-04-07T06:06:01;100419.41;;;6.89;100.00
45541;BME280;31265;49.680;8.608;2023-04-07T06:08:30;100414.09;;;6.91;100.00
45541;BME280;31265;49.680;8.608;2023-04-07T06:11:00;100416.50;;;7.08;100.00
45541;BME280;31265;49.680;8.608;2023-04-07T06:13:28;100407.78;;;7.17;100.00
45541;BME280;31265;49.680;8.608;2023-04-07T06:15:57;100411.56;;;7.27;100.00
45541;BME280;31265;49.680;8.608;2023-04-07T06:18:26;100406.09;;;7.35;100.00
45541;BME280;31265;49.680;8.608;2023-04-07T06:20:54;100417.69;;;7.54;100.00
45541;BME280;31265;49.680;8.608;2023-04-07T06:23:26;100416.41;;;7.77;100.00
45541;BME280;31265;49.680;8.608;2023-04-07T06:25:54;100412.47;;;7.93;100.00
45541;BME280;31265;49.680;8.608;2023-04-07T06:28:25;100410.13;;;7.97;100.00
45541;BME280;31265;49.680;8.608;2023-04-07T06:30:54;100401.88;;;8.05;100.00
45541;BME280;31265;49.680;8.608;2023-04-07T06:33:25;100408.09;;;8.26;100.00
45541;BME280;31265;49.680;8.608;2023-04-07T06:35:56;100413.41;;;8.53;100.00
45541;BME280;31265;49.680;8.608;2023-04-07T06:38:26;100410.16;;;8.70;100.00
45541;BME280;31265;49.680;8.608;2023-04-07T06:40:54;100421.88;;;8.91;100.00
45541;BME280;31265;49.680;8.608;2023-04-07T06:43:23;100423.75;;;9.04;100.00
45541;BME280;31265;49.680;8.608;2023-04-07T06:46:00;100415.13;;;9.23;100.00
45541;BME280;31265;49.680;8.608;2023-04-07T06:48:29;100417.72;;;9.21;100.00
45541;BME280;31265;49.680;8.608;2023-04-07T06:50:57;100421.91;;;8.99;100.00
45541;BME280;31265;49.680;8.608;2023-04-07T06:53:26;100415.63;;;8.98;100.00
45541;BME280;31265;49.680;8.608;2023-04-07T06:56:02;100426.31;;;9.02;100.00
45541;BME280;31265;49.680;8.608;2023-04-07T06:58:32;100422.63;;;8.99;100.00
45541;BME280;31265;49.680;8.608;2023-04-07T07:01:01;100426.91;;;9.08;100.00
45541;BME280;31265;49.680;8.608;2023-04-07T07:03:30;100424.97;;;8.88;100.00
45541;BME280;31265;49.680;8.608;2023-04-07T07:06:00;100419.03;;;8.68;100.00
45541;BME280;31265;49.680;8.608;2023-04-07T07:08:31;100421.47;;;8.79;100.00
45541;BME280;31265;49.680;8.608;2023-04-07T07:10:59;100426.88;;;9.00;100.00
45541;BME280;31265;49.680;8.608;2023-04-07T07:13:28;100430.03;;;9.12;100.00
45541;BME280;31265;49.680;8.608;2023-04-07T07:15:56;100428.00;;;9.05;100.00
45541;BME280;31265;49.680;8.608;2023-04-07T07:18:25;100431.59;;;9.44;100.00
45541;BME280;31265;49.680;8.608;2023-04-07T07:20:55;100436.41;;;9.59;100.00
45541;BME280;31265;49.680;8.608;2023-04-07T07:23:23;100429.22;;;9.56;100.00
45541;BME280;31265;49.680;8.608;2023-04-07T07:25:53;100429.78;;;9.77;100.00
45541;BME280;31265;49.680;8.608;2023-04-07T07:28:21;100431.81;;;9.92;100.00
45541;BME280;31265;49.680;8.608;2023-04-07T07:30:49;100430.69;;;9.95;100.00
45541;BME280;31265;49.680;8.608;2023-04-07T07:33:18;100437.88;;;10.06;100.00
45541;BME280;31265;49.680;8.608;2023-04-07T07:35:50;100433.84;;;9.92;100.00
45541;BME280;31265;49.680;8.608;2023-04-07T07:38:18;100431.25;;;9.94;100.00
45541;BME280;31265;49.680;8.608;2023-04-07T07:40:48;100437.13;;;10.28;100.00
45541;BME280;31265;49.680;8.608;2023-04-07T07:43:17;100431.38;;;10.42;100.00
45541;BME280;31265;49.680;8.608;2023-04-07T07:45:47;100440.22;;;10.55;100.00
45541;BME280;31265;49.680;8.608;2023-04-07T07:48:16;100436.38;;;10.43;100.00
45541;BME280;31265;49.680;8.608;2023-04-07T07:50:44;100438.97;;;10.33;100.00
45541;BME280;31265;49.680;8.608;2023-04-07T07:53:13;100440.47;;;10.11;100.00
45541;BME280;31265;49.680;8.608;2023-04-07T07:55:41;100446.38;;;10.23;100.00
45541;BME280;31265;49.680;8.608;2023-04-07T07:58:09;100444.91;;;10.38;100.00
45541;BME280;31265;49.680;8.608;2023-04-07T08:00:40;100453.75;;;10.21;100.00
45541;BME280;31265;49.680;8.608;2023-04-07T08:03:11;100448.25;;;10.05;100.00
45541;BME280;31265;49.680;8.608;2023-04-07T08:05:40;100450.28;;;9.82;100.00
45541;BME280;31265;49.680;8.608;2023-04-07T08:08:10;100448.44;;;9.92;100.00
45541;BME280;31265;49.680;8.608;2023-04-07T08:10:39;100450.66;;;9.86;100.00
45541;BME280;31265;49.680;8.608;2023-04-07T08:13:07;100450.09;;;10.03;100.00
45541;BME280;31265;49.680;8.608;2023-04-07T08:15:36;100459.69;;;9.86;100.00
45541;BME280;31265;49.680;8.608;2023-04-07T08:18:10;100452.69;;;9.93;100.00
45541;BME280;31265;49.680;8.608;2023-04-07T08:20:39;100462.28;;;10.00;100.00
45541;BME280;31265;49.680;8.608;2023-04-07T08:23:08;100460.44;;;10.10;100.00
45541;BME280;31265;49.680;8.608;2023-04-07T08:25:38;100461.00;;;10.01;100.00
45541;BME280;31265;49.680;8.608;2023-04-07T08:28:07;100467.09;;;9.99;100.00
45541;BME280;31265;49.680;8.608;2023-04-07T08:30:35;100465.44;;;9.88;100.00
45541;BME280;31265;49.680;8.608;2023-04-07T08:33:04;100462.66;;;10.04;100.00
45541;BME280;31265;49.680;8.608;2023-04-07T08:35:34;100463.38;;;10.20;100.00
45541;BME280;31265;49.680;8.608;2023-04-07T08:38:03;100470.22;;;10.19;100.00
45541;BME280;31265;49.680;8.608;2023-04-07T08:40:32;100471.72;;;10.12;100.00
45541;BME280;31265;49.680;8.608;2023-04-07T08:43:04;100470.41;;;10.13;100.00
45541;BME280;31265;49.680;8.608;2023-04-07T08:45:37;100476.72;;;10.21;100.00
45541;BME280;31265;49.680;8.608;2023-04-07T08:48:11;100470.03;;;10.24;100.00
45541;BME280;31265;49.680;8.608;2023-04-07T08:50:44;100488.50;;;10.52;100.00
45541;BME280;31265;49.680;8.608;2023-04-07T08:53:17;100478.75;;;10.36;100.00
45541;BME280;31265;49.680;8.608;2023-04-07T08:55:48;100479.66;;;10.39;100.00
45541;BME280;31265;49.680;8.608;2023-04-07T08:58:17;100486.47;;;10.45;100.00
45541;BME280;31265;49.680;8.608;2023-04-07T09:00:46;100484.44;;;10.53;100.00
45541;BME280;31265;49.680;8.608;2023-04-07T09:03:16;100484.63;;;10.63;100.00
45541;BME280;31265;49.680;8.608;2023-04-07T09:05:48;100492.72;;;10.69;100.00
45541;BME280;31265;49.680;8.608;2023-04-07T09:08:17;100490.50;;;10.67;100.00
45541;BME280;31265;49.680;8.608;2023-04-07T09:10:45;100492.84;;;10.94;100.00
45541;BME280;31265;49.680;8.608;2023-04-07T09:13:13;100498.97;;;11.33;100.00
45541;BME280;31265;49.680;8.608;2023-04-07T09:15:42;100492.72;;;11.50;100.00
45541;BME280;31265;49.680;8.608;2023-04-07T09:18:13;100495.47;;;11.90;100.00
45541;BME280;31265;49.680;8.608;2023-04-07T09:20:57;100497.56;;;12.07;100.00
45541;BME280;31265;49.680;8.608;2023-04-07T09:23:30;100496.31;;;12.00;100.00
45541;BME280;31265;49.680;8.608;2023-04-07T09:28:48;100502.03;;;11.45;100.00
45541;BME280;31265;49.680;8.608;2023-04-07T09:31:17;100501.16;;;11.34;100.00
45541;BME280;31265;49.680;8.608;2023-04-07T09:33:49;100501.97;;;11.19;100.00
45541;BME280;31265;49.680;8.608;2023-04-07T09:36:19;100505.13;;;10.68;100.00
45541;BME280;31265;49.680;8.608;2023-04-07T09:38:47;100501.03;;;10.76;100.00
45541;BME280;31265;49.680;8.608;2023-04-07T09:41:15;100510.13;;;11.17;100.00
45541;BME280;31265;49.680;8.608;2023-04-07T09:43:45;100503.25;;;11.59;100.00
45541;BME280;31265;49.680;8.608;2023-04-07T09:46:15;100499.41;;;11.87;100.00
45541;BME280;31265;49.680;8.608;2023-04-07T09:48:45;100499.41;;;12.30;100.00
45541;BME280;31265;49.680;8.608;2023-04-07T09:51:15;100504.72;;;12.35;100.00
45541;BME280;31265;49.680;8.608;2023-04-07T09:53:46;100499.28;;;12.02;100.00
45541;BME280;31265;49.680;8.608;2023-04-07T09:56:17;100492.28;;;12.36;100.00
45541;BME280;31265;49.680;8.608;2023-04-07T09:58:49;100491.00;;;12.89;100.00
45541;BME280;31265;49.680;8.608;2023-04-07T10:01:20;100496.88;;;12.24;100.00
45541;BME280;31265;49.680;8.608;2023-04-07T10:03:48;100494.34;;;12.70;100.00
45541;BME280;31265;49.680;8.608;2023-04-07T10:06:18;100489.94;;;12.50;100.00
45541;BME280;31265;49.680;8.608;2023-04-07T10:08:50;100493.44;;;12.33;100.00
45541;BME280;31265;49.680;8.608;2023-04-07T10:11:18;100492.69;;;14.30;100.00
45541;BME280;31265;49.680;8.608;2023-04-07T10:13:47;100497.72;;;15.10;100.00
45541;BME280;31265;49.680;8.608;2023-04-07T10:16:16;100487.41;;;15.12;100.00
45541;BME280;31265;49.680;8.608;2023-04-07T10:18:45;100500.84;;;14.94;100.00
45541;BME280;31265;49.680;8.608;2023-04-07T10:21:15;100503.13;;;14.30;100.00
45541;BME280;31265;49.680;8.608;2023-04-07T10:23:52;100500.00;;;14.16;100.00
45541;BME280;31265;49.680;8.608;2023-04-07T10:26:25;100497.28;;;13.89;100.00
45541;BME280;31265;49.680;8.608;2023-04-07T10:29:00;100496.53;;;13.88;100.00
45541;BME280;31265;49.680;8.608;2023-04-07T10:31:30;100507.22;;;13.45;100.00
45541;BME280;31265;49.680;8.608;2023-04-07T10:34:01;100507.84;;;13.09;100.00
45541;BME280;31265;49.680;8.608;2023-04-07T10:36:30;100510.13;;;13.03;100.00
45541;BME280;31265;49.680;8.608;2023-04-07T10:39:20;100508.09;;;12.51;100.00
45541;BME280;31265;49.680;8.608;2023-04-07T10:41:49;100510.69;;;12.14;100.00
45541;BME280;31265;49.680;8.608;2023-04-07T10:44:49;100515.84;;;11.60;100.00
45541;BME280;31265;49.680;8.608;2023-04-07T10:47:18;100512.19;;;11.50;100.00
45541;BME280;31265;49.680;8.608;2023-04-07T10:50:15;100516.69;;;11.45;100.00
45541;BME280;31265;49.680;8.608;2023-04-07T10:52:44;100519.69;;;11.65;100.00
45541;BME280;31265;49.680;8.608;2023-04-07T10:55:32;100509.56;;;11.84;100.00
45541;BME280;31265;49.680;8.608;2023-04-07T10:58:17;100517.03;;;12.07;100.00
45541;BME280;31265;49.680;8.608;2023-04-07T11:03:59;100509.56;;;12.35;100.00
45541;BME280;31265;49.680;8.608;2023-04-07T11:06:29;100511.28;;;12.30;100.00
45541;BME280;31265;49.680;8.608;2023-04-07T11:08:58;100516.00;;;12.20;100.00
45541;BME280;31265;49.680;8.608;2023-04-07T11:11:40;100510.44;;;11.95;100.00
45541;BME280;31265;49.680;8.608;2023-04-07T11:14:09;100513.09;;;11.85;100.00
45541;BME280;31265;49.680;8.608;2023-04-07T11:16:39;100515.81;;;11.68;100.00
45541;BME280;31265;49.680;8.608;2023-04-07T11:19:08;100516.00;;;11.62;100.00
45541;BME280;31265;49.680;8.608;2023-04-07T11:21:38;100515.84;;;11.19;100.00
45541;BME280;31265;49.680;8.608;2023-04-07T11:24:08;100521.75;;;10.75;100.00
45541;BME280;31265;49.680;8.608;2023-04-07T11:26:40;100522.69;;;10.63;100.00
45541;BME280;31265;49.680;8.608;2023-04-07T11:29:10;100527.53;;;10.08;100.00
45541;BME280;31265;49.680;8.608;2023-04-07T11:31:46;100524.41;;;9.97;100.00
45541;BME280;31265;49.680;8.608;2023-04-07T11:34:15;100527.91;;;10.05;100.00
45541;BME280;31265;49.680;8.608;2023-04-07T11:36:45;100529.19;;;10.04;100.00
45541;BME280;31265;49.680;8.608;2023-04-07T11:39:20;100526.25;;;10.09;100.00
45541;BME280;31265;49.680;8.608;2023-04-07T11:41:52;100539.75;;;10.28;100.00
45541;BME280;31265;49.680;8.608;2023-04-07T11:44:21;100535.69;;;10.45;100.00
45541;BME280;31265;49.680;8.608;2023-04-07T11:46:52;100538.81;;;10.49;100.00
45541;BME280;31265;49.680;8.608;2023-04-07T11:49:22;100545.66;;;10.71;100.00
45541;BME280;31265;49.680;8.608;2023-04-07T11:51:57;100535.06;;;10.77;100.00
45541;BME280;31265;49.680;8.608;2023-04-07T11:54:27;100549.50;;;10.75;100.00
45541;BME280;31265;49.680;8.608;2023-04-07T11:56:56;100544.31;;;10.80;100.00
45541;BME280;31265;49.680;8.608;2023-04-07T11:59:27;100548.06;;;10.51;100.00
45541;BME280;31265;49.680;8.608;2023-04-07T12:01:55;100546.41;;;10.64;100.00
45541;BME280;31265;49.680;8.608;2023-04-07T12:04:24;100555.97;;;10.70;100.00
45541;BME280;31265;49.680;8.608;2023-04-07T12:06:53;100556.91;;;10.88;100.00
45541;BME280;31265;49.680;8.608;2023-04-07T12:09:26;100552.28;;;10.75;100.00
45541;BME280;31265;49.680;8.608;2023-04-07T12:11:57;100550.44;;;10.70;100.00
45541;BME280;31265;49.680;8.608;2023-04-07T12:14:28;100555.06;;;10.83;100.00
45541;BME280;31265;49.680;8.608;2023-04-07T12:17:01;100556.53;;;10.84;100.00
45541;BME280;31265;49.680;8.608;2023-04-07T12:19:31;100560.16;;;11.02;100.00
45541;BME280;31265;49.680;8.608;2023-04-07T12:22:00;100559.66;;;10.96;100.00
45541;BME280;31265;49.680;8.608;2023-04-07T12:24:29;100560.16;;;11.02;100.00
45541;BME280;31265;49.680;8.608;2023-04-07T12:27:00;100559.38;;;11.17;100.00
45541;BME280;31265;49.680;8.608;2023-04-07T12:29:31;100563.44;;;11.24;100.00
45541;BME280;31265;49.680;8.608;2023-04-07T12:31:59;100561.00;;;11.35;100.00
45541;BME280;31265;49.680;8.608;2023-04-07T12:34:27;100559.38;;;11.17;100.00
45541;BME280;31265;49.680;8.608;2023-04-07T12:36:56;100562.72;;;11.15;100.00
45541;BME280;31265;49.680;8.608;2023-04-07T12:39:26;100560.13;;;11.17;100.00
45541;BME280;31265;49.680;8.608;2023-04-07T12:41:56;100565.78;;;11.35;100.00
45541;BME280;31265;49.680;8.608;2023-04-07T12:44:27;100566.59;;;11.28;100.00
45541;BME280;31265;49.680;8.608;2023-04-07T12:46:56;100572.84;;;11.36;100.00
45541;BME280;31265;49.680;8.608;2023-04-07T12:49:25;100565.25;;;11.29;100.00
45541;BME280;31265;49.680;8.608;2023-04-07T12:51:54;100565.66;;;11.25;100.00
45541;BME280;31265;49.680;8.608;2023-04-07T12:54:24;100570.25;;;11.38;100.00
45541;BME280;31265;49.680;8.608;2023-04-07T12:56:54;100569.22;;;11.58;100.00
45541;BME280;31265;49.680;8.608;2023-04-07T12:59:23;100571.94;;;11.66;100.00
45541;BME280;31265;49.680;8.608;2023-04-07T13:01:54;100572.34;;;11.62;100.00
45541;BME280;31265;49.680;8.608;2023-04-07T13:04:23;100569.84;;;11.82;100.00
45541;BME280;31265;49.680;8.608;2023-04-07T13:06:53;100562.44;;;12.10;100.00
45541;BME280;31265;49.680;8.608;2023-04-07T13:09:21;100570.94;;;12.37;100.00
45541;BME280;31265;49.680;8.608;2023-04-07T13:11:50;100576.75;;;12.48;100.00